< < Back
Terminal Aerodrome Forecast


Current Version              Previous Versions:   1  2  3  4  5  6  7  8  9  

Terminal Aerodrome Forecast

454
FTUS42 KTAE 300520
TAFABY
TAF
KABY 300520Z 3006/3106 VRB03KT P6SM SKC
     FM301400 13005KT P6SM FEW050=



Latest METAR

007
SAUS70 KWBC 301600 RRD
MTRABY
METAR KABY 301553Z VRB05KT 10SM BKN038 29/18 A3015 RMK AO2 SLP209
T02890183


USA.gov is the U.S. government's official web portal to all federal, state and local government web resources and services.